Time;durP1;ratioP1;P1;durP2;ratioP2;P2;SDS_P1;SDS_P2;PMS_P1;PMS_P2;Temp;Humidity;BMP_temperature;BMP_pressure;BME280_temperature;BME280_humidity;BME280_pressure;Samples;Min_cycle;Max_cycle;Signal;HPM_P1;HPM_P2
2023/07/16 00:00:20;;;;;;;22.58;18.63;;;19.90;99.90;;;;;;5013126;28;20030;-76
2023/07/16 00:02:47;;;;;;;23.52;20.27;;;19.90;99.90;;;;;;5012429;28;20056;-75
2023/07/16 00:05:13;;;;;;;24.90;22.00;;;19.80;99.90;;;;;;5013026;28;20032;-76
2023/07/16 00:07:39;;;;;;;25.58;18.73;;;19.80;99.90;;;;;;5012373;28;20384;-76
2023/07/16 00:10:05;;;;;;;24.88;17.20;;;19.80;99.90;;;;;;5012126;28;20033;-76
2023/07/16 00:12:31;;;;;;;24.95;20.70;;;19.70;99.90;;;;;;5013153;28;20034;-75
2023/07/16 00:14:57;;;;;;;28.38;21.52;;;19.70;99.90;;;;;;5012231;28;20034;-75
2023/07/16 00:17:23;;;;;;;25.75;21.17;;;19.80;99.90;;;;;;5011404;28;20030;-75
2023/07/16 00:19:49;;;;;;;27.90;21.63;;;19.80;99.90;;;;;;5013087;28;20057;-75
2023/07/16 00:22:15;;;;;;;24.75;22.25;;;19.80;99.90;;;;;;5012843;28;20030;-75
2023/07/16 00:24:41;;;;;;;26.42;22.25;;;19.80;99.90;;;;;;5013014;28;20080;-75
2023/07/16 00:27:08;;;;;;;26.65;23.02;;;19.80;99.90;;;;;;5011888;28;20029;-75
2023/07/16 00:29:34;;;;;;;26.55;21.15;;;19.80;99.90;;;;;;5013016;28;20387;-75
2023/07/16 00:32:00;;;;;;;24.92;21.60;;;19.80;99.90;;;;;;5012351;28;20041;-74
2023/07/16 00:34:26;;;;;;;24.40;21.13;;;19.80;99.90;;;;;;5011585;28;20549;-75
2023/07/16 00:36:52;;;;;;;25.42;21.92;;;19.80;99.90;;;;;;5011543;28;20056;-76
2023/07/16 00:39:18;;;;;;;25.58;20.05;;;19.80;99.90;;;;;;5011971;28;20389;-76
2023/07/16 00:41:44;;;;;;;26.50;23.70;;;19.80;99.90;;;;;;5011262;28;20045;-75
2023/07/16 00:44:10;;;;;;;36.75;33.17;;;19.80;99.90;;;;;;5012869;28;20034;-75
2023/07/16 00:46:36;;;;;;;33.70;28.35;;;19.70;99.90;;;;;;5012258;28;20038;-75
2023/07/16 00:49:02;;;;;;;34.40;30.77;;;19.70;99.90;;;;;;5012149;28;20081;-76
2023/07/16 00:51:30;;;;;;;32.75;29.52;;;19.70;99.90;;;;;;5011326;28;20049;-75
2023/07/16 00:53:56;;;;;;;29.67;25.05;;;19.70;99.90;;;;;;5011698;28;20026;-75
2023/07/16 00:56:22;;;;;;;26.15;16.73;;;19.80;99.90;;;;;;5012431;28;20359;-75
2023/07/16 00:58:48;;;;;;;27.98;17.13;;;19.70;99.90;;;;;;5011358;28;20026;-75
2023/07/16 01:01:14;;;;;;;24.88;17.20;;;19.70;99.90;;;;;;5010663;28;20045;-76
2023/07/16 01:03:40;;;;;;;29.27;26.17;;;19.70;99.90;;;;;;5010850;28;20037;-75
2023/07/16 01:06:43;;;;;;;22.75;17.50;;;19.70;99.90;;;;;;4994685;28;20038;-76
2023/07/16 01:09:18;;;;;;;27.80;24.15;;;19.70;99.90;;;;;;4971252;28;20128;-76
2023/07/16 01:11:45;;;;;;;33.45;28.08;;;19.60;99.90;;;;;;4954908;28;20039;-75
2023/07/16 01:14:12;;;;;;;31.13;28.17;;;19.60;99.90;;;;;;4955147;28;20042;-75
2023/07/16 01:16:38;;;;;;;31.95;26.95;;;19.60;99.90;;;;;;4954816;28;20535;-75
2023/07/16 01:19:05;;;;;;;27.58;23.38;;;19.60;99.90;;;;;;4954315;28;20421;-75
2023/07/16 01:22:07;;;;;;;27.35;22.20;;;19.60;99.90;;;;;;4971022;28;20041;-76
2023/07/16 01:24:52;;;;;;;25.88;23.13;;;19.60;99.90;;;;;;4970511;28;20138;-75
2023/07/16 01:27:28;;;;;;;31.30;26.38;;;19.50;99.90;;;;;;4971185;28;20038;-76
2023/07/16 01:30:04;;;;;;;33.95;30.38;;;19.50;99.90;;;;;;4955789;28;20042;-75
2023/07/16 01:32:30;;;;;;;29.38;24.73;;;19.50;99.90;;;;;;4991970;28;20161;-76
2023/07/16 01:34:56;;;;;;;29.95;23.85;;;19.50;99.90;;;;;;4993717;28;20030;-76
2023/07/16 01:37:22;;;;;;;25.83;23.08;;;19.50;99.90;;;;;;4977220;28;20045;-76
2023/07/16 01:39:48;;;;;;;34.90;31.45;;;19.50;99.90;;;;;;5026429;28;20045;-76
2023/07/16 01:42:15;;;;;;;34.72;31.10;;;19.40;99.90;;;;;;5026135;28;20483;-75
2023/07/16 01:44:41;;;;;;;27.67;24.77;;;19.40;99.90;;;;;;5032491;28;20037;-75
2023/07/16 01:47:13;;;;;;;28.50;24.23;;;19.40;99.90;;;;;;5027347;28;20061;-76
2023/07/16 01:49:39;;;;;;;28.88;26.08;;;19.40;99.90;;;;;;5014153;28;20456;-76
2023/07/16 01:52:06;;;;;;;29.38;26.33;;;19.40;99.90;;;;;;5030247;28;20398;-75
2023/07/16 01:54:32;;;;;;;34.50;27.52;;;19.30;99.90;;;;;;5035601;28;20021;-76
2023/07/16 01:56:58;;;;;;;25.58;22.83;;;19.30;99.90;;;;;;5017889;28;20029;-76
2023/07/16 01:59:24;;;;;;;24.85;21.98;;;19.20;99.90;;;;;;5034987;28;20033;-75
2023/07/16 02:01:50;;;;;;;27.50;21.45;;;19.20;99.90;;;;;;5027148;28;20049;-76
2023/07/16 02:04:16;;;;;;;28.35;23.20;;;19.20;99.90;;;;;;5027519;28;20037;-75
2023/07/16 02:06:43;;;;;;;30.52;26.80;;;19.20;99.90;;;;;;5016257;28;20033;-76
2023/07/16 02:09:10;;;;;;;27.55;24.67;;;19.10;99.90;;;;;;5032999;28;20052;-75
2023/07/16 02:11:36;;;;;;;28.80;22.88;;;19.20;99.90;;;;;;5016403;28;20052;-75
2023/07/16 02:14:02;;;;;;;26.75;22.70;;;19.10;99.90;;;;;;5034056;28;20029;-75
2023/07/16 02:16:28;;;;;;;28.77;22.67;;;19.10;99.90;;;;;;5033272;28;20040;-75
2023/07/16 02:18:54;;;;;;;27.25;23.83;;;19.20;99.90;;;;;;5033974;28;20478;-75
2023/07/16 02:21:20;;;;;;;28.17;25.02;;;19.20;99.90;;;;;;5033628;28;20052;-75
2023/07/16 02:23:46;;;;;;;31.20;26.90;;;19.10;99.90;;;;;;5032797;28;20029;-76
2023/07/16 02:26:12;;;;;;;27.40;24.48;;;19.20;99.90;;;;;;5032626;28;20030;-75
2023/07/16 02:28:39;;;;;;;27.05;23.13;;;19.10;99.90;;;;;;5032769;28;20025;-75
2023/07/16 02:31:05;;;;;;;32.13;26.48;;;19.00;99.90;;;;;;5031379;28;20049;-75
2023/07/16 02:33:31;;;;;;;29.33;23.08;;;19.00;99.90;;;;;;5033785;28;20029;-75
2023/07/16 02:35:57;;;;;;;28.60;21.60;;;19.00;99.90;;;;;;5032141;28;20033;-76
2023/07/16 02:38:23;;;;;;;29.80;24.92;;;19.00;99.90;;;;;;5034928;28;20026;-76
2023/07/16 02:40:49;;;;;;;30.65;23.17;;;18.90;99.90;;;;;;5034673;28;20034;-76
2023/07/16 02:43:15;;;;;;;30.52;27.13;;;18.90;99.90;;;;;;5034889;28;20036;-75
2023/07/16 02:45:41;;;;;;;33.15;23.20;;;18.90;99.90;;;;;;5032547;28;20037;-76
2023/07/16 02:48:07;;;;;;;35.85;32.17;;;18.90;99.90;;;;;;5033237;28;20394;-76
2023/07/16 02:50:35;;;;;;;30.95;27.80;;;18.90;99.90;;;;;;5033138;28;20045;-76
2023/07/16 02:53:02;;;;;;;28.38;23.05;;;18.90;99.90;;;;;;5033677;28;20037;-75
2023/07/16 02:55:28;;;;;;;28.70;22.00;;;18.80;99.90;;;;;;5033206;28;21086;-75
2023/07/16 02:57:55;;;;;;;25.50;22.75;;;18.80;99.90;;;;;;5033520;28;20025;-76
2023/07/16 03:00:22;;;;;;;27.13;21.67;;;18.80;99.90;;;;;;5032271;28;20045;-75
2023/07/16 03:02:49;;;;;;;30.33;22.67;;;18.80;99.90;;;;;;5034374;28;20029;-75
2023/07/16 03:05:16;;;;;;;27.88;24.90;;;18.70;99.90;;;;;;5013255;28;20479;-75
2023/07/16 03:07:43;;;;;;;29.35;22.20;;;18.70;99.90;;;;;;5034265;28;20030;-75
2023/07/16 03:10:09;;;;;;;29.38;21.02;;;18.60;99.90;;;;;;5016561;28;20072;-75
2023/07/16 03:12:35;;;;;;;29.38;19.35;;;18.60;99.90;;;;;;5013521;28;20053;-75
2023/07/16 03:15:01;;;;;;;27.90;19.55;;;18.60;99.90;;;;;;5014138;28;20036;-75
2023/07/16 03:17:27;;;;;;;25.00;19.30;;;18.60;99.90;;;;;;5011683;28;20034;-75
2023/07/16 03:19:53;;;;;;;28.05;21.40;;;18.60;99.90;;;;;;5014483;28;20360;-75
2023/07/16 03:22:19;;;;;;;29.25;22.17;;;18.60;99.90;;;;;;5014062;28;20042;-75
2023/07/16 03:24:45;;;;;;;24.13;18.05;;;18.50;99.90;;;;;;5014328;28;20383;-76
2023/07/16 03:27:12;;;;;;;27.17;20.65;;;18.60;99.90;;;;;;5014170;28;20026;-75
2023/07/16 03:29:38;;;;;;;27.83;20.52;;;18.50;99.90;;;;;;5013750;28;20423;-76
2023/07/16 03:32:04;;;;;;;26.38;20.55;;;18.60;99.90;;;;;;5013498;28;20038;-75
2023/07/16 03:34:30;;;;;;;29.77;21.98;;;18.60;99.90;;;;;;5012959;28;20029;-76
2023/07/16 03:36:56;;;;;;;22.17;19.02;;;18.60;99.90;;;;;;5012630;28;20037;-75
2023/07/16 03:39:22;;;;;;;25.63;20.75;;;18.60;99.90;;;;;;5013155;28;20026;-74
2023/07/16 03:41:48;;;;;;;27.60;18.25;;;18.60;99.90;;;;;;4996129;28;20049;-75
2023/07/16 03:44:14;;;;;;;22.02;19.08;;;18.60;99.90;;;;;;5013668;28;20037;-75
2023/07/16 03:46:40;;;;;;;25.63;18.25;;;18.50;99.90;;;;;;5013196;28;20046;-75
2023/07/16 03:49:08;;;;;;;25.08;19.38;;;18.60;99.90;;;;;;5013710;28;20418;-75
2023/07/16 03:51:34;;;;;;;27.33;18.10;;;18.60;99.90;;;;;;5012331;28;20474;-76
2023/07/16 03:54:00;;;;;;;20.70;17.38;;;18.60;99.90;;;;;;4996573;28;20096;-75
2023/07/16 03:56:26;;;;;;;29.05;17.15;;;18.60;99.90;;;;;;4995529;28;20623;-75
2023/07/16 03:58:52;;;;;;;25.77;17.98;;;18.60;99.90;;;;;;5012198;28;20034;-75
2023/07/16 04:01:18;;;;;;;25.77;17.20;;;18.60;99.90;;;;;;5011975;28;20033;-75
2023/07/16 04:03:45;;;;;;;24.65;16.83;;;18.60;99.90;;;;;;5012367;28;20056;-75
2023/07/16 04:06:12;;;;;;;23.98;16.77;;;18.60;99.90;;;;;;5012025;28;20030;-75
2023/07/16 04:08:38;;;;;;;28.73;17.17;;;18.60;99.90;;;;;;5012337;28;20026;-75
2023/07/16 04:11:04;;;;;;;27.80;16.77;;;18.60;99.90;;;;;;5013063;28;20038;-76
2023/07/16 04:13:30;;;;;;;24.08;16.95;;;18.50;99.90;;;;;;5011837;28;20486;-75
2023/07/16 04:15:57;;;;;;;27.63;17.80;;;18.60;99.90;;;;;;5012434;28;20041;-75
2023/07/16 04:18:24;;;;;;;27.27;17.40;;;18.60;99.90;;;;;;5013335;28;20022;-75
2023/07/16 04:20:50;;;;;;;26.58;18.38;;;18.60;99.90;;;;;;5011780;28;20037;-75
2023/07/16 04:23:16;;;;;;;27.55;18.45;;;18.60;99.90;;;;;;5012242;28;20045;-76
2023/07/16 04:25:42;;;;;;;26.67;16.60;;;18.60;99.90;;;;;;5012746;28;20045;-76
2023/07/16 04:28:12;;;;;;;21.13;15.43;;;18.60;99.90;;;;;;5013202;28;20033;-75
2023/07/16 04:30:38;;;;;;;21.83;14.55;;;18.50;99.90;;;;;;5010943;28;20053;-76
2023/07/16 04:33:04;;;;;;;26.05;15.40;;;18.50;99.90;;;;;;5013063;28;20034;-75
2023/07/16 04:35:32;;;;;;;21.00;15.23;;;18.50;99.90;;;;;;5012713;28;20061;-75
2023/07/16 04:37:58;;;;;;;23.05;14.43;;;18.50;99.90;;;;;;4992047;28;20035;-75
2023/07/16 04:40:24;;;;;;;26.15;14.23;;;18.50;99.90;;;;;;4994665;28;20030;-75
2023/07/16 04:42:50;;;;;;;25.25;14.23;;;18.50;99.90;;;;;;4995331;28;20034;-75
2023/07/16 04:45:17;;;;;;;27.50;14.73;;;18.50;99.90;;;;;;5012112;28;20061;-75
2023/07/16 04:47:43;;;;;;;20.65;13.20;;;18.40;99.90;;;;;;5011617;28;20391;-75
2023/07/16 04:50:09;;;;;;;24.08;15.75;;;18.50;99.90;;;;;;4994729;28;20133;-75
2023/07/16 04:52:37;;;;;;;27.08;13.32;;;18.50;99.90;;;;;;4992154;28;20054;-75
2023/07/16 04:55:04;;;;;;;28.80;13.15;;;18.50;99.90;;;;;;4992900;28;20031;-76
2023/07/16 04:57:30;;;;;;;26.95;13.63;;;18.50;99.90;;;;;;5010620;28;20409;-75
2023/07/16 04:59:56;;;;;;;24.85;14.52;;;18.50;99.90;;;;;;5012603;28;20034;-76
2023/07/16 05:02:22;;;;;;;23.55;13.77;;;18.50;99.90;;;;;;5011859;28;20384;-75
2023/07/16 05:04:48;;;;;;;23.35;14.00;;;18.50;99.90;;;;;;5012375;28;20032;-75
2023/07/16 05:07:14;;;;;;;23.75;13.55;;;18.50;99.90;;;;;;5012188;28;20483;-75
2023/07/16 05:09:44;;;;;;;24.98;13.20;;;18.50;99.90;;;;;;5012205;28;20029;-75
2023/07/16 05:12:10;;;;;;;29.90;13.85;;;18.50;99.90;;;;;;5012503;28;20036;-75
2023/07/16 05:14:47;;;;;;;25.08;13.20;;;18.50;99.90;;;;;;5012513;28;20471;-75
2023/07/16 05:17:13;;;;;;;22.35;13.93;;;18.60;99.90;;;;;;5011985;28;20022;-75
2023/07/16 05:19:39;;;;;;;20.52;14.60;;;18.60;99.90;;;;;;5011369;28;20049;-75
2023/07/16 05:22:06;;;;;;;23.80;14.50;;;18.60;99.90;;;;;;5012097;28;20030;-75
2023/07/16 05:24:32;;;;;;;22.42;14.82;;;18.70;99.90;;;;;;5012175;28;20041;-75
2023/07/16 05:26:58;;;;;;;26.50;15.20;;;18.80;99.90;;;;;;5011701;28;20030;-75
2023/07/16 05:29:24;;;;;;;24.17;13.18;;;19.00;99.90;;;;;;5011821;28;20037;-75
2023/07/16 05:31:50;;;;;;;18.52;12.23;;;19.10;99.90;;;;;;5010314;28;20360;-75
2023/07/16 05:34:16;;;;;;;20.08;11.30;;;19.30;99.90;;;;;;5012350;28;20037;-75
2023/07/16 05:36:44;;;;;;;21.73;11.00;;;19.40;99.90;;;;;;4990875;28;20046;-75
2023/07/16 05:39:12;;;;;;;23.88;11.65;;;19.60;99.90;;;;;;4992624;28;20038;-75
2023/07/16 05:41:41;;;;;;;20.35;11.45;;;19.60;99.90;;;;;;4987026;28;20042;-75
2023/07/16 05:44:08;;;;;;;21.25;11.45;;;19.80;99.90;;;;;;5010570;28;20030;-75
2023/07/16 05:46:34;;;;;;;14.73;11.43;;;19.80;99.90;;;;;;5011502;28;20038;-75
2023/07/16 05:49:00;;;;;;;26.42;12.23;;;20.00;99.90;;;;;;5010822;28;20046;-75
2023/07/16 05:51:26;;;;;;;19.08;11.73;;;20.10;99.90;;;;;;4990763;28;20057;-75
2023/07/16 05:53:52;;;;;;;19.00;12.57;;;20.10;99.90;;;;;;4974731;28;20046;-75
2023/07/16 05:56:18;;;;;;;26.58;13.93;;;20.30;99.90;;;;;;5001242;28;20034;-75
2023/07/16 05:58:45;;;;;;;18.73;15.38;;;20.40;99.90;;;;;;5012054;28;20037;-75
2023/07/16 06:01:11;;;;;;;23.02;15.15;;;20.50;99.90;;;;;;5011170;28;20030;-75
2023/07/16 06:03:37;;;;;;;21.65;15.70;;;20.50;99.90;;;;;;5010666;28;20026;-75
2023/07/16 06:06:03;;;;;;;20.13;16.95;;;20.70;99.90;;;;;;5010586;28;20093;-75
2023/07/16 06:08:29;;;;;;;23.33;18.73;;;20.80;99.90;;;;;;5011688;28;20149;-75
2023/07/16 06:10:55;;;;;;;24.40;21.90;;;20.90;99.90;;;;;;5010314;28;20049;-75
2023/07/16 06:13:21;;;;;;;27.77;25.15;;;21.10;99.90;;;;;;5011795;28;20048;-74
2023/07/16 06:15:47;;;;;;;28.42;25.73;;;21.20;99.90;;;;;;5011149;28;20034;-75
2023/07/16 06:18:13;;;;;;;31.00;27.83;;;21.30;99.90;;;;;;5011896;28;20049;-75
2023/07/16 06:20:44;;;;;;;32.05;29.08;;;21.30;99.90;;;;;;5011476;28;20455;-74
2023/07/16 06:23:11;;;;;;;32.13;29.35;;;21.40;99.90;;;;;;4994449;28;20042;-75
2023/07/16 06:25:37;;;;;;;37.13;33.53;;;21.40;99.90;;;;;;5011299;28;20026;-75
2023/07/16 06:28:04;;;;;;;39.72;36.55;;;21.50;99.90;;;;;;5011690;28;20045;-74
2023/07/16 06:30:32;;;;;;;41.40;37.92;;;21.60;99.90;;;;;;5010996;28;20049;-75
2023/07/16 06:32:58;;;;;;;41.47;38.10;;;21.70;99.90;;;;;;5011860;28;20041;-75
2023/07/16 06:35:24;;;;;;;40.95;37.30;;;21.80;99.90;;;;;;5010231;28;20041;-74
2023/07/16 06:37:50;;;;;;;45.10;41.30;;;22.00;99.90;;;;;;5011352;28;20471;-75
2023/07/16 06:40:17;;;;;;;46.90;43.25;;;22.10;99.90;;;;;;5014382;28;20034;-74
2023/07/16 06:42:43;;;;;;;44.70;41.28;;;22.20;99.90;;;;;;5015250;28;20022;-74
2023/07/16 06:45:09;;;;;;;43.08;39.50;;;22.30;99.90;;;;;;5013667;28;20034;-74
2023/07/16 06:47:35;;;;;;;41.72;38.33;;;22.40;99.90;;;;;;5015162;28;20387;-75
2023/07/16 06:50:01;;;;;;;39.88;36.50;;;22.50;99.90;;;;;;5014782;28;20046;-75
2023/07/16 06:52:27;;;;;;;34.40;31.60;;;22.70;99.90;;;;;;5014655;28;20038;-75
2023/07/16 06:54:55;;;;;;;36.22;32.60;;;22.70;99.90;;;;;;5015119;28;20030;-75
2023/07/16 06:57:24;;;;;;;36.60;33.75;;;22.80;99.90;;;;;;5013564;28;20034;-75
2023/07/16 06:59:50;;;;;;;33.15;30.00;;;22.90;99.90;;;;;;5015441;28;20034;-75
2023/07/16 07:02:16;;;;;;;35.40;32.50;;;23.00;99.90;;;;;;4996644;28;20057;-75
2023/07/16 07:04:43;;;;;;;35.88;32.55;;;23.10;99.90;;;;;;5014828;28;20026;-74
2023/07/16 07:07:09;;;;;;;31.73;28.73;;;23.20;99.90;;;;;;5013170;28;20030;-75
2023/07/16 07:09:35;;;;;;;31.08;28.13;;;23.20;99.90;;;;;;5014900;28;20093;-74
2023/07/16 07:12:01;;;;;;;32.10;28.90;;;23.30;99.90;;;;;;5014481;28;20042;-75
2023/07/16 07:14:27;;;;;;;31.80;28.77;;;23.40;99.90;;;;;;5014837;28;20030;-75
2023/07/16 07:16:53;;;;;;;33.45;30.63;;;23.40;99.90;;;;;;5013933;28;20502;-75
2023/07/16 07:19:20;;;;;;;32.75;29.88;;;23.40;99.90;;;;;;5013756;28;20037;-75
2023/07/16 07:21:46;;;;;;;33.28;30.20;;;23.40;99.90;;;;;;5012993;28;20049;-75
2023/07/16 07:24:12;;;;;;;30.80;27.92;;;23.40;99.90;;;;;;5014666;28;20037;-75
2023/07/16 07:26:38;;;;;;;32.15;29.38;;;23.60;99.90;;;;;;5013237;28;20033;-75
2023/07/16 07:29:04;;;;;;;34.22;31.25;;;23.80;99.90;;;;;;5014473;28;20026;-75
2023/07/16 07:31:30;;;;;;;33.25;30.42;;;23.90;99.90;;;;;;5013545;28;20061;-75
2023/07/16 07:33:59;;;;;;;34.88;31.92;;;24.00;99.90;;;;;;5014521;28;20471;-75
2023/07/16 07:36:25;;;;;;;33.40;30.60;;;24.10;99.90;;;;;;5012765;28;20034;-75
2023/07/16 07:38:52;;;;;;;28.67;26.15;;;24.20;99.90;;;;;;5013139;28;20036;-75
2023/07/16 07:41:18;;;;;;;26.95;24.10;;;24.40;99.90;;;;;;5014002;28;20455;-75
2023/07/16 07:43:44;;;;;;;24.65;22.05;;;24.50;99.90;;;;;;5014322;28;20041;-77
2023/07/16 07:46:10;;;;;;;23.70;21.45;;;24.60;99.90;;;;;;5013433;28;20426;-75
2023/07/16 07:48:36;;;;;;;24.75;22.45;;;24.60;99.90;;;;;;5013708;28;20033;-75
2023/07/16 07:51:02;;;;;;;25.23;21.85;;;24.50;99.30;;;;;;5012401;28;20483;-76
2023/07/16 07:53:28;;;;;;;27.05;23.42;;;24.50;99.30;;;;;;5014141;28;20498;-76
2023/07/16 07:55:55;;;;;;;24.92;21.98;;;24.30;98.80;;;;;;5012586;28;20030;-75
2023/07/16 07:58:21;;;;;;;25.40;23.00;;;24.30;99.10;;;;;;4996769;28;20048;-75
2023/07/16 08:00:47;;;;;;;23.25;20.90;;;24.40;99.50;;;;;;5011787;28;20480;-75
2023/07/16 08:03:13;;;;;;;21.40;19.35;;;24.50;99.00;;;;;;5013486;28;20041;-71
2023/07/16 08:05:39;;;;;;;21.95;19.73;;;24.50;98.60;;;;;;5013594;28;20026;-75
2023/07/16 08:08:05;;;;;;;21.02;19.02;;;24.50;98.50;;;;;;5013820;28;20033;-75
2023/07/16 08:10:31;;;;;;;20.77;18.73;;;24.70;98.90;;;;;;5011796;28;20042;-76
2023/07/16 08:12:57;;;;;;;18.40;16.50;;;24.90;97.80;;;;;;5013566;28;20036;-75
2023/07/16 08:15:23;;;;;;;18.00;16.20;;;24.90;97.20;;;;;;5012731;28;20030;-75
2023/07/16 08:17:49;;;;;;;20.35;18.42;;;25.00;96.70;;;;;;5013265;28;20037;-75
2023/07/16 08:20:16;;;;;;;20.30;18.52;;;25.00;95.80;;;;;;5011913;28;20026;-76
2023/07/16 08:22:42;;;;;;;20.30;18.00;;;24.80;96.50;;;;;;5013664;28;20038;-75
2023/07/16 08:25:08;;;;;;;19.60;17.60;;;24.70;96.50;;;;;;5013513;28;20475;-75
2023/07/16 08:27:34;;;;;;;18.88;17.08;;;24.70;96.30;;;;;;5011870;28;20030;-75
2023/07/16 08:30:00;;;;;;;19.10;17.30;;;24.70;96.80;;;;;;5013347;28;20391;-74
2023/07/16 08:32:26;;;;;;;18.95;17.13;;;24.80;96.50;;;;;;5012322;28;20054;-75
2023/07/16 08:34:52;;;;;;;17.27;15.77;;;25.00;96.20;;;;;;5013275;28;20030;-76
2023/07/16 08:37:19;;;;;;;18.55;16.75;;;25.10;95.90;;;;;;5013073;28;20037;-76
2023/07/16 08:39:45;;;;;;;18.42;16.67;;;25.10;95.30;;;;;;5012043;28;20026;-76
2023/07/16 08:42:11;;;;;;;17.83;16.17;;;25.20;95.30;;;;;;5012711;28;20041;-75
2023/07/16 08:44:40;;;;;;;17.98;16.13;;;25.30;95.70;;;;;;5011671;28;20034;-75
2023/07/16 08:47:09;;;;;;;18.35;16.70;;;25.50;95.70;;;;;;5010672;28;20048;-76
2023/07/16 08:49:35;;;;;;;20.48;18.20;;;25.70;95.20;;;;;;5011517;28;20050;-75
2023/07/16 08:52:02;;;;;;;20.35;18.70;;;25.70;94.70;;;;;;5011266;28;20042;-75
2023/07/16 08:54:28;;;;;;;21.75;19.95;;;25.60;94.70;;;;;;5012854;28;20033;-75
2023/07/16 08:56:54;;;;;;;21.45;19.73;;;25.50;94.60;;;;;;5011450;28;20036;-75
2023/07/16 08:59:20;;;;;;;20.25;18.45;;;25.60;94.10;;;;;;5013087;28;20452;-74
2023/07/16 09:01:47;;;;;;;22.90;21.00;;;25.80;94.40;;;;;;5011724;28;20415;-76
2023/07/16 09:04:14;;;;;;;26.33;24.35;;;26.00;94.10;;;;;;5011565;28;20030;-76
2023/07/16 09:06:40;;;;;;;33.45;30.73;;;26.10;93.20;;;;;;5012465;28;20029;-74
2023/07/16 09:09:06;;;;;;;28.10;25.60;;;26.00;93.00;;;;;;5012636;28;20033;-75
2023/07/16 09:11:33;;;;;;;22.63;20.77;;;25.90;92.90;;;;;;5012306;28;20497;-75
2023/07/16 09:14:02;;;;;;;24.83;22.80;;;25.90;93.70;;;;;;5011800;28;20037;-75
2023/07/16 09:16:32;;;;;;;24.42;22.63;;;25.90;93.10;;;;;;5011710;28;20737;-75
2023/07/16 09:19:17;;;;;;;30.88;28.30;;;25.90;93.30;;;;;;5011538;28;20033;-75
2023/07/16 09:21:45;;;;;;;30.08;27.17;;;25.80;92.40;;;;;;5012558;28;20533;-75
2023/07/16 09:24:11;;;;;;;26.40;24.70;;;25.80;92.50;;;;;;5012580;28;20033;-76
2023/07/16 09:26:38;;;;;;;29.20;26.85;;;25.80;92.70;;;;;;5012381;28;20102;-76
2023/07/16 09:29:07;;;;;;;24.48;22.35;;;25.80;92.10;;;;;;5010848;28;20033;-76
2023/07/16 09:31:34;;;;;;;22.55;20.58;;;25.90;92.70;;;;;;5010092;28;20050;-76
2023/07/16 09:34:00;;;;;;;26.08;23.73;;;26.00;93.00;;;;;;5011443;28;20356;-76
2023/07/16 09:36:26;;;;;;;36.15;33.78;;;26.30;93.00;;;;;;5012102;28;20026;-76
2023/07/16 09:38:55;;;;;;;26.40;24.38;;;26.30;92.00;;;;;;5012306;28;20077;-76
2023/07/16 09:41:21;;;;;;;23.73;21.65;;;26.00;92.10;;;;;;5011078;28;20041;-74
2023/07/16 09:43:47;;;;;;;24.45;22.17;;;25.80;92.40;;;;;;5011249;28;20493;-76
2023/07/16 09:46:13;;;;;;;20.70;18.58;;;25.50;92.70;;;;;;5010211;28;20042;-76
2023/07/16 09:48:39;;;;;;;20.42;18.30;;;25.40;93.50;;;;;;5011120;28;20036;-75
2023/07/16 09:51:06;;;;;;;19.42;17.75;;;25.50;93.30;;;;;;5010601;28;20069;-75
2023/07/16 09:53:32;;;;;;;20.20;18.17;;;25.70;93.50;;;;;;5011107;28;20029;-76
2023/07/16 09:55:58;;;;;;;19.85;18.00;;;25.80;93.30;;;;;;5010686;28;20034;-76
2023/07/16 09:58:24;;;;;;;19.30;17.48;;;25.90;93.70;;;;;;5010982;28;20025;-76
2023/07/16 10:00:50;;;;;;;21.77;19.83;;;26.00;93.40;;;;;;5009695;28;20034;-75
2023/07/16 10:03:17;;;;;;;20.60;18.58;;;25.90;93.10;;;;;;5010814;28;20026;-76
2023/07/16 10:05:43;;;;;;;20.83;18.75;;;25.90;93.30;;;;;;5011885;28;20037;-76
2023/07/16 10:08:17;;;;;;;22.17;20.35;;;25.90;93.30;;;;;;5010825;28;20026;-76
2023/07/16 10:10:53;;;;;;;21.08;19.15;;;25.90;92.90;;;;;;5010508;28;20029;-75
2023/07/16 10:13:22;;;;;;;22.58;20.55;;;25.90;93.40;;;;;;5011073;28;20021;-75
2023/07/16 10:15:56;;;;;;;19.75;18.20;;;25.70;92.50;;;;;;5014988;28;20034;-75
2023/07/16 10:18:27;;;;;;;21.05;19.38;;;25.80;93.10;;;;;;5014592;28;20459;-75
2023/07/16 10:20:53;;;;;;;19.52;17.52;;;25.80;92.90;;;;;;5015509;28;20034;-75
2023/07/16 10:23:19;;;;;;;26.08;23.77;;;25.90;93.50;;;;;;5014811;28;20391;-75
2023/07/16 10:25:59;;;;;;;20.73;19.00;;;26.10;92.10;;;;;;5015468;28;20037;-75
2023/07/16 10:28:25;;;;;;;23.55;21.70;;;26.20;93.10;;;;;;5014013;28;20045;-75
2023/07/16 10:30:51;;;;;;;24.42;22.73;;;26.20;92.20;;;;;;5014747;28;20038;-75
2023/07/16 10:33:17;;;;;;;27.58;25.55;;;26.30;92.50;;;;;;5015427;28;20032;-75
2023/07/16 10:35:44;;;;;;;22.23;20.30;;;26.20;91.90;;;;;;5015009;28;20498;-75
2023/07/16 10:38:11;;;;;;;26.60;24.42;;;26.20;92.60;;;;;;5014179;28;20049;-75
2023/07/16 10:40:41;;;;;;;21.77;19.98;;;26.30;92.10;;;;;;5013878;28;20380;-75
2023/07/16 10:43:07;;;;;;;25.05;23.02;;;26.40;92.60;;;;;;5015392;28;20423;-75
2023/07/16 10:45:33;;;;;;;32.70;30.48;;;26.50;92.80;;;;;;5013224;28;20038;-75
2023/07/16 10:47:59;;;;;;;46.67;43.70;;;26.60;91.80;;;;;;5014104;28;20034;-75
2023/07/16 10:50:25;;;;;;;35.65;33.28;;;26.70;90.40;;;;;;5013577;28;20391;-75
2023/07/16 10:52:56;;;;;;;35.70;33.50;;;26.70;91.20;;;;;;4997324;28;20050;-75
2023/07/16 10:55:23;;;;;;;50.28;47.05;;;26.80;91.20;;;;;;5014781;28;20416;-75
2023/07/16 10:57:50;;;;;;;42.45;39.72;;;26.80;90.40;;;;;;5013498;28;20037;-75
2023/07/16 11:00:17;;;;;;;40.03;37.53;;;26.90;90.50;;;;;;5013105;28;20030;-75
2023/07/16 11:02:43;;;;;;;46.53;43.78;;;27.00;90.50;;;;;;4997280;28;20050;-75
2023/07/16 11:05:13;;;;;;;62.92;59.17;;;27.20;90.60;;;;;;5013847;28;20030;-75
2023/07/16 11:07:44;;;;;;;35.03;32.83;;;27.20;89.20;;;;;;4978045;28;20034;-74
2023/07/16 11:10:10;;;;;;;27.48;25.55;;;27.10;90.90;;;;;;4993851;28;20030;-75
2023/07/16 11:12:36;;;;;;;25.35;23.67;;;26.90;91.60;;;;;;4994785;28;20042;-75
2023/07/16 11:15:03;;;;;;;27.23;25.27;;;27.00;92.10;;;;;;4993629;28;20038;-73
2023/07/16 11:17:29;;;;;;;24.30;22.45;;;27.10;91.90;;;;;;5013841;28;20022;-75
2023/07/16 11:19:55;;;;;;;27.13;25.38;;;27.10;92.10;;;;;;5014648;28;20041;-75
2023/07/16 11:22:25;;;;;;;24.90;23.20;;;27.10;91.70;;;;;;5014387;28;20040;-75
2023/07/16 11:24:51;;;;;;;31.25;29.30;;;27.00;91.80;;;;;;5014077;28;20033;-75
2023/07/16 11:27:26;;;;;;;36.88;34.35;;;27.00;91.20;;;;;;5013147;28;20037;-75
2023/07/16 11:29:56;;;;;;;37.72;35.38;;;27.00;90.90;;;;;;5013516;28;20479;-75
2023/07/16 11:32:37;;;;;;;33.10;30.65;;;27.10;90.90;;;;;;5012477;28;20060;-75
2023/07/16 11:35:04;;;;;;;39.20;36.80;;;27.30;91.10;;;;;;5014400;28;20498;-75
2023/07/16 11:37:31;;;;;;;57.78;54.20;;;27.30;90.60;;;;;;5013875;28;20471;-75
2023/07/16 11:39:58;;;;;;;56.78;53.35;;;27.40;89.10;;;;;;5012950;28;20034;-75
2023/07/16 11:42:34;;;;;;;47.75;44.85;;;27.30;88.00;;;;;;5013634;28;20026;-75
2023/07/16 11:45:00;;;;;;;61.88;58.45;;;27.20;89.10;;;;;;5014201;28;20034;-75
2023/07/16 11:47:26;;;;;;;58.22;54.83;;;27.20;87.70;;;;;;5012248;28;20040;-75
2023/07/16 11:49:53;;;;;;;46.08;43.22;;;27.00;87.30;;;;;;5013754;28;20098;-75
2023/07/16 11:52:26;;;;;;;63.15;59.72;;;27.00;87.80;;;;;;5012436;28;20394;-74
2023/07/16 11:54:53;;;;;;;51.70;48.65;;;26.90;87.50;;;;;;5013902;28;20026;-75
2023/07/16 11:57:19;;;;;;;40.30;37.88;;;26.80;87.20;;;;;;5013472;28;20033;-75
2023/07/16 11:59:45;;;;;;;38.33;35.88;;;26.60;88.30;;;;;;5012786;28;20034;-75
2023/07/16 12:02:11;;;;;;;28.45;26.35;;;26.40;88.30;;;;;;5012092;28;20034;-75
2023/07/16 12:04:37;;;;;;;25.67;23.58;;;26.30;90.00;;;;;;5012727;28;20053;-75
2023/07/16 12:07:04;;;;;;;21.17;19.58;;;26.30;90.40;;;;;;5012214;28;20034;-75
2023/07/16 12:09:30;;;;;;;20.60;19.05;;;26.30;91.00;;;;;;5013685;28;20030;-75
2023/07/16 12:11:56;;;;;;;23.08;21.10;;;26.40;91.70;;;;;;5012991;28;20053;-75
2023/07/16 12:14:22;;;;;;;23.63;21.80;;;26.50;91.10;;;;;;5012424;28;20021;-75
2023/07/16 12:16:48;;;;;;;24.15;22.55;;;26.50;91.10;;;;;;5013028;28;20037;-75
2023/07/16 12:19:14;;;;;;;20.65;19.10;;;26.50;90.90;;;;;;5012331;28;20049;-75
2023/07/16 12:21:40;;;;;;;27.25;25.35;;;26.70;91.40;;;;;;5013115;28;20048;-75
2023/07/16 12:24:06;;;;;;;31.33;29.27;;;26.90;91.20;;;;;;5013523;28;20037;-75
2023/07/16 12:26:33;;;;;;;42.80;40.28;;;27.10;90.40;;;;;;5012729;28;20037;-76